Gunter, Texas
Current Conditions -  °F | °C
As of 4:55 PM on Wednesday 22 Oct 2014 (Local Time) from KGYI Reporting Station
Clear Clear  
Wind Chill: 77°   Ceiling: Unl
Heat Index: 79°   Visibility: 10mi
Dew Point: 60°   Wind: 6mph
Humidity: 56%   Direction: 110°ESE
Pressure: 30.09"   Gusts: NA
Location:  33.45°N, 96.75°W
Report Text: KGYI 222155Z AUTO 11005KT 10SM CLR 25/16 A3009 RMK AO2 T02500156
Loading
Personal Weather Stations






























Interactive Weather Map
Tropical Storm Tracking
New forecast layout! Learn more

10-Day Weather Forecast

Advertisements
Track Severe Weather on mobile